createdAt,value
2023-06-21T00:00:25.509Z,26.60
2023-06-21T00:02:53.847Z,26.65
2023-06-21T00:05:23.156Z,26.64
2023-06-21T00:07:54.144Z,26.63
2023-06-21T00:10:24.573Z,26.50
2023-06-21T00:12:53.209Z,26.48
2023-06-21T00:15:24.012Z,26.42
2023-06-21T00:17:52.140Z,26.30
2023-06-21T00:20:20.502Z,26.33
2023-06-21T00:22:48.600Z,26.33
2023-06-21T00:25:17.142Z,26.28
2023-06-21T00:27:45.224Z,26.32
2023-06-21T00:30:13.542Z,26.33
2023-06-21T00:32:43.095Z,26.25
2023-06-21T00:35:11.775Z,26.19
2023-06-21T00:37:39.892Z,26.15
2023-06-21T00:40:14.021Z,26.05
2023-06-21T00:42:42.363Z,25.99
2023-06-21T00:45:16.350Z,26.06
2023-06-21T00:47:47.576Z,26.05
2023-06-21T00:50:16.185Z,26.05
2023-06-21T00:52:45.029Z,26.09
2023-06-21T00:55:14.804Z,26.13
2023-06-21T00:57:45.620Z,26.12
2023-06-21T01:00:21.455Z,26.08
2023-06-21T01:02:52.861Z,26.07
2023-06-21T01:05:24.404Z,25.99
2023-06-21T01:08:01.695Z,26.01
2023-06-21T01:10:45.343Z,26.00
2023-06-21T01:13:27.896Z,26.01
2023-06-21T01:16:04.180Z,25.93
2023-06-21T01:18:37.880Z,25.96
2023-06-21T01:21:07.325Z,25.90
2023-06-21T01:23:52.261Z,25.90
2023-06-21T01:26:36.608Z,25.74
2023-06-21T01:29:11.585Z,25.72
2023-06-21T01:31:41.935Z,25.70
2023-06-21T01:34:11.605Z,25.54
2023-06-21T01:36:41.010Z,25.60
2023-06-21T01:39:10.896Z,25.60
2023-06-21T01:41:40.131Z,25.60
2023-06-21T01:44:11.851Z,25.61
2023-06-21T01:46:41.845Z,25.65
2023-06-21T01:49:11.755Z,25.70
2023-06-21T01:51:42.614Z,25.58
2023-06-21T01:54:11.479Z,25.63
2023-06-21T01:56:42.978Z,25.64
2023-06-21T01:59:12.557Z,25.55
2023-06-21T02:01:42.752Z,25.52
2023-06-21T02:04:12.206Z,25.47
2023-06-21T02:06:41.574Z,25.47
2023-06-21T02:09:11.250Z,25.55
2023-06-21T02:11:42.380Z,25.61
2023-06-21T02:14:10.549Z,25.44
2023-06-21T02:16:40.053Z,25.47
2023-06-21T02:19:08.398Z,25.56
2023-06-21T02:21:38.749Z,25.44
2023-06-21T02:24:08.345Z,25.43
2023-06-21T02:26:39.143Z,25.47
2023-06-21T02:29:07.290Z,25.45
2023-06-21T02:31:35.791Z,25.40
2023-06-21T02:34:05.358Z,25.25
2023-06-21T02:36:33.636Z,25.21
2023-06-21T02:39:01.781Z,25.18
2023-06-21T02:41:30.060Z,25.15
2023-06-21T02:43:58.118Z,25.19
2023-06-21T02:46:26.340Z,25.12
2023-06-21T02:48:55.067Z,25.13
2023-06-21T02:51:26.414Z,25.14
2023-06-21T02:53:54.781Z,25.14
2023-06-21T02:56:23.927Z,25.13
2023-06-21T02:58:51.991Z,25.08
2023-06-21T03:01:20.295Z,25.05
2023-06-21T03:03:48.436Z,25.08
2023-06-21T03:06:16.757Z,25.04
2023-06-21T03:08:46.270Z,25.12
2023-06-21T03:11:15.723Z,25.08
2023-06-21T03:13:43.990Z,25.07
2023-06-21T03:16:12.159Z,25.14
2023-06-21T03:18:40.875Z,25.14
2023-06-21T03:21:09.499Z,25.13
2023-06-21T03:23:40.175Z,25.03
2023-06-21T03:26:11.141Z,25.03
2023-06-21T03:28:39.379Z,25.12
2023-06-21T03:31:10.573Z,25.13
2023-06-21T03:33:38.876Z,25.08
2023-06-21T03:36:08.445Z,25.11
2023-06-21T03:38:36.643Z,25.03
2023-06-21T03:41:04.728Z,25.12
2023-06-21T03:43:34.623Z,25.14
2023-06-21T03:46:07.225Z,25.13
2023-06-21T03:48:37.319Z,25.11
2023-06-21T03:51:05.566Z,25.22
2023-06-21T03:53:35.061Z,25.12
2023-06-21T03:56:03.220Z,25.08
2023-06-21T03:58:31.520Z,25.13
2023-06-21T04:01:00.944Z,25.25
2023-06-21T04:03:29.430Z,25.17
2023-06-21T04:05:57.543Z,25.21
2023-06-21T04:08:26.296Z,25.24
2023-06-21T04:10:54.453Z,25.34
2023-06-21T04:13:36.068Z,25.51
2023-06-21T04:16:06.665Z,25.56
2023-06-21T04:18:34.840Z,25.68
2023-06-21T04:21:03.084Z,25.85
2023-06-21T04:23:31.284Z,25.92
2023-06-21T04:25:59.568Z,25.99
2023-06-21T04:28:27.727Z,26.00
2023-06-21T04:30:57.394Z,26.10
2023-06-21T04:33:26.956Z,26.08
2023-06-21T04:35:55.019Z,26.11
2023-06-21T04:38:23.965Z,26.28
2023-06-21T04:40:54.277Z,26.35
2023-06-21T04:43:26.389Z,26.50
2023-06-21T04:45:54.866Z,26.66
2023-06-21T04:48:25.924Z,26.87
2023-06-21T04:50:55.483Z,27.01
2023-06-21T04:53:29.719Z,27.08
2023-06-21T04:55:58.686Z,27.09
2023-06-21T04:58:27.756Z,27.03
2023-06-21T05:00:56.324Z,27.01
2023-06-21T05:03:24.610Z,27.21
2023-06-21T05:05:52.958Z,27.29
2023-06-21T05:08:23.447Z,27.32
2023-06-21T05:10:51.553Z,27.23
2023-06-21T05:13:19.996Z,27.26
2023-06-21T05:15:48.131Z,27.22
2023-06-21T05:18:16.383Z,27.21
2023-06-21T05:20:44.688Z,27.46
2023-06-21T05:23:12.839Z,27.50
2023-06-21T05:25:42.432Z,27.44
2023-06-21T05:28:10.595Z,27.62
2023-06-21T05:30:38.750Z,27.84
2023-06-21T05:33:06.921Z,27.85
2023-06-21T05:35:35.026Z,28.03
2023-06-21T05:38:03.086Z,28.14
2023-06-21T05:40:31.413Z,28.06
2023-06-21T05:43:02.708Z,28.20
2023-06-21T05:45:31.101Z,28.31
2023-06-21T05:47:59.490Z,28.42
2023-06-21T05:50:31.482Z,28.58
2023-06-21T05:52:59.720Z,28.80
2023-06-21T05:55:28.312Z,28.95
2023-06-21T05:57:56.360Z,29.16
2023-06-21T06:00:26.173Z,29.36
2023-06-21T06:02:54.575Z,29.50
2023-06-21T06:05:22.766Z,29.46
2023-06-21T06:07:50.809Z,29.68
2023-06-21T06:10:19.269Z,29.61
2023-06-21T06:12:47.317Z,29.65
2023-06-21T06:15:15.522Z,29.84
2023-06-21T06:17:45.004Z,29.75
2023-06-21T06:20:14.155Z,29.87
2023-06-21T06:22:42.195Z,30.02
2023-06-21T06:25:11.906Z,30.25
2023-06-21T06:27:40.155Z,30.40
2023-06-21T06:30:09.376Z,30.00
2023-06-21T06:32:37.580Z,30.28
2023-06-21T06:35:08.685Z,30.58
2023-06-21T06:37:36.774Z,30.84
2023-06-21T06:40:06.607Z,30.61
2023-06-21T06:42:35.961Z,30.85
2023-06-21T06:45:06.743Z,30.73
2023-06-21T06:47:34.897Z,30.96
2023-06-21T06:50:05.416Z,31.21
2023-06-21T06:52:34.866Z,31.20
2023-06-21T06:55:04.414Z,31.36
2023-06-21T06:57:37.989Z,31.35
2023-06-21T07:00:12.870Z,31.40
2023-06-21T07:02:41.160Z,31.43
2023-06-21T07:05:10.013Z,31.52
2023-06-21T07:07:39.622Z,31.73
2023-06-21T07:10:08.518Z,31.78
2023-06-21T07:12:36.679Z,31.69
2023-06-21T07:15:05.457Z,31.79
2023-06-21T07:17:33.625Z,31.70
2023-06-21T07:20:01.805Z,32.01
2023-06-21T07:22:30.035Z,32.05
2023-06-21T07:24:59.610Z,32.16
2023-06-21T07:27:29.103Z,32.29
2023-06-21T07:29:57.641Z,32.30
2023-06-21T07:32:31.686Z,32.38
2023-06-21T07:35:00.163Z,32.40
2023-06-21T07:37:28.898Z,32.24
2023-06-21T07:39:57.466Z,32.12
2023-06-21T07:42:27.396Z,32.52
2023-06-21T07:44:56.956Z,32.70
2023-06-21T07:47:25.368Z,32.64
2023-06-21T07:49:53.565Z,32.80
2023-06-21T07:52:21.802Z,32.98
2023-06-21T07:54:50.522Z,33.16
2023-06-21T07:57:19.289Z,33.31
2023-06-21T07:59:48.784Z,33.16
2023-06-21T08:02:19.131Z,33.17
2023-06-21T08:04:48.278Z,33.55
2023-06-21T08:07:16.499Z,33.42
2023-06-21T08:09:44.701Z,33.48
2023-06-21T08:12:14.040Z,33.51
2023-06-21T08:14:42.135Z,33.64
2023-06-21T08:17:11.623Z,33.87
2023-06-21T08:19:39.750Z,33.97
2023-06-21T08:22:08.105Z,34.03
2023-06-21T08:24:36.513Z,34.22
2023-06-21T08:27:04.905Z,34.43
2023-06-21T08:29:33.179Z,34.25
2023-06-21T08:32:01.494Z,34.42
2023-06-21T08:34:31.068Z,34.31
2023-06-21T08:36:59.189Z,34.19
2023-06-21T08:39:29.290Z,34.08
2023-06-21T08:41:59.578Z,34.43
2023-06-21T08:44:27.783Z,34.67
2023-06-21T08:46:58.129Z,34.92
2023-06-21T08:49:28.758Z,35.09
2023-06-21T08:52:01.692Z,35.26
2023-06-21T08:54:32.464Z,35.05
2023-06-21T08:57:05.707Z,35.26
2023-06-21T08:59:37.752Z,35.54
2023-06-21T09:02:15.063Z,35.31
2023-06-21T09:04:47.648Z,35.59
2023-06-21T09:07:18.340Z,35.86
2023-06-21T09:09:48.221Z,36.02
2023-06-21T09:12:19.292Z,35.99
2023-06-21T09:14:48.362Z,36.22
2023-06-21T09:17:16.810Z,35.80
2023-06-21T09:19:45.371Z,36.22
2023-06-21T09:22:14.869Z,36.40
2023-06-21T09:24:46.096Z,36.48
2023-06-21T09:27:14.407Z,36.67
2023-06-21T09:29:42.581Z,36.80
2023-06-21T09:32:10.824Z,36.78
2023-06-21T09:34:39.123Z,36.78
2023-06-21T09:37:07.248Z,36.37
2023-06-21T09:39:35.321Z,36.87
2023-06-21T09:42:06.986Z,36.84
2023-06-21T09:44:36.707Z,36.91
2023-06-21T09:47:06.157Z,36.66
2023-06-21T09:49:34.326Z,36.64
2023-06-21T09:52:02.458Z,36.95
2023-06-21T09:54:42.813Z,36.91
2023-06-21T09:57:12.648Z,37.07
2023-06-21T09:59:41.857Z,36.76
2023-06-21T10:02:10.357Z,37.16
2023-06-21T10:04:43.217Z,37.31
2023-06-21T10:07:15.328Z,37.30
2023-06-21T10:09:43.874Z,37.66
2023-06-21T10:12:14.077Z,37.86
2023-06-21T10:14:42.837Z,37.87
2023-06-21T10:17:11.348Z,36.37
2023-06-21T10:19:39.652Z,36.91
2023-06-21T10:22:10.352Z,36.62
2023-06-21T10:24:42.652Z,36.80
2023-06-21T10:27:14.278Z,37.07
2023-06-21T10:29:45.603Z,36.83
2023-06-21T10:32:14.827Z,36.68
2023-06-21T10:34:53.779Z,36.97
2023-06-21T10:37:29.242Z,36.87
2023-06-21T10:40:10.544Z,36.87
2023-06-21T10:42:42.023Z,36.51
2023-06-21T10:45:12.354Z,36.51
2023-06-21T10:47:41.842Z,35.93
2023-06-21T10:50:11.712Z,34.85
2023-06-21T10:52:41.511Z,35.55
2023-06-21T10:55:11.331Z,36.11
2023-06-21T10:57:41.754Z,35.99
2023-06-21T11:00:11.694Z,36.30
2023-06-21T11:02:40.050Z,36.32
2023-06-21T11:05:15.820Z,36.09
2023-06-21T11:07:49.798Z,36.02
2023-06-21T11:10:18.146Z,36.32
2023-06-21T11:12:47.746Z,36.33
2023-06-21T11:15:23.291Z,36.34
2023-06-21T11:18:05.126Z,36.34
2023-06-21T11:20:35.863Z,36.37
2023-06-21T11:23:10.667Z,35.48
2023-06-21T11:25:39.014Z,35.24
2023-06-21T11:28:33.826Z,35.05
2023-06-21T11:31:09.578Z,35.45
2023-06-21T11:33:52.957Z,35.25
2023-06-21T11:36:23.414Z,34.08
2023-06-21T11:38:53.887Z,34.01
2023-06-21T11:41:57.902Z,34.65
2023-06-21T11:44:28.853Z,34.76
2023-06-21T11:47:19.604Z,34.72
2023-06-21T11:49:53.522Z,34.74
2023-06-21T11:52:26.260Z,34.42
2023-06-21T11:54:54.487Z,34.64
2023-06-21T11:57:22.615Z,34.80
2023-06-21T11:59:52.003Z,34.89
2023-06-21T12:02:22.082Z,34.88
2023-06-21T12:04:51.641Z,34.92
2023-06-21T12:07:20.306Z,34.78
2023-06-21T12:09:54.667Z,34.79
2023-06-21T12:12:26.777Z,34.61
2023-06-21T12:14:59.152Z,34.52
2023-06-21T12:17:27.430Z,34.51
2023-06-21T12:20:00.665Z,34.22
2023-06-21T12:22:28.864Z,34.18
2023-06-21T12:24:57.134Z,33.72
2023-06-21T12:27:25.189Z,32.45
2023-06-21T12:29:53.211Z,29.68
2023-06-21T12:32:23.340Z,30.27
2023-06-21T12:34:51.619Z,29.04
2023-06-21T12:37:21.688Z,28.40
2023-06-21T12:39:54.932Z,29.05
2023-06-21T12:42:23.322Z,28.64
2023-06-21T12:44:58.667Z,28.61
2023-06-21T12:47:28.190Z,27.81
2023-06-21T12:50:03.062Z,28.15
2023-06-21T12:52:32.039Z,29.06
2023-06-21T12:55:02.192Z,28.43
2023-06-21T12:57:32.755Z,28.54
2023-06-21T13:00:00.983Z,28.34
2023-06-21T13:02:30.710Z,28.78
2023-06-21T13:04:59.323Z,29.01
2023-06-21T13:07:27.407Z,28.87
2023-06-21T13:09:55.645Z,29.13
2023-06-21T13:12:23.743Z,29.00
2023-06-21T13:14:51.895Z,29.14
2023-06-21T13:17:20.087Z,29.44
2023-06-21T13:19:49.613Z,29.27
2023-06-21T13:22:17.714Z,30.68
2023-06-21T13:24:45.818Z,31.90
2023-06-21T13:27:13.950Z,32.75
2023-06-21T13:29:42.279Z,33.50
2023-06-21T13:32:10.548Z,34.04
2023-06-21T13:34:38.764Z,34.18
2023-06-21T13:37:08.426Z,34.25
2023-06-21T13:39:36.641Z,34.52
2023-06-21T13:42:05.030Z,34.72
2023-06-21T13:44:33.291Z,35.02
2023-06-21T13:47:01.507Z,35.00
2023-06-21T13:49:29.782Z,35.02
2023-06-21T13:51:57.984Z,34.73
2023-06-21T13:54:27.495Z,34.98
2023-06-21T13:56:55.569Z,35.31
2023-06-21T13:59:37.658Z,35.56
2023-06-21T14:02:07.086Z,35.93
2023-06-21T14:04:35.410Z,35.96
2023-06-21T14:07:03.920Z,36.03
2023-06-21T14:09:35.099Z,36.39
2023-06-21T14:12:03.219Z,36.82
2023-06-21T14:14:31.304Z,37.15
2023-06-21T14:16:59.606Z,37.09
2023-06-21T14:19:27.714Z,37.84
2023-06-21T14:21:55.894Z,38.28
2023-06-21T14:24:24.059Z,38.40
2023-06-21T14:26:53.599Z,39.07
2023-06-21T14:29:21.692Z,39.61
2023-06-21T14:31:50.068Z,38.81
2023-06-21T14:34:18.253Z,38.47
2023-06-21T14:36:46.399Z,38.97
2023-06-21T14:39:14.564Z,38.78
2023-06-21T14:41:42.770Z,39.40
2023-06-21T14:44:12.406Z,39.06
2023-06-21T14:46:40.620Z,37.95
2023-06-21T14:49:12.826Z,38.46
2023-06-21T14:51:41.136Z,38.08
2023-06-21T14:54:09.169Z,38.68
2023-06-21T14:56:37.264Z,38.78
2023-06-21T14:59:05.450Z,38.46
2023-06-21T15:01:35.071Z,38.92
2023-06-21T15:04:03.345Z,39.40
2023-06-21T15:06:32.100Z,39.56
2023-06-21T15:09:00.230Z,39.03
2023-06-21T15:11:28.350Z,39.24
2023-06-21T15:13:57.234Z,38.87
2023-06-21T15:16:29.968Z,38.28
2023-06-21T15:18:59.512Z,38.63
2023-06-21T15:21:27.648Z,39.06
2023-06-21T15:23:55.665Z,38.89
2023-06-21T15:26:23.766Z,38.49
2023-06-21T15:28:51.931Z,39.00
2023-06-21T15:31:22.532Z,39.12
2023-06-21T15:33:50.698Z,39.08
2023-06-21T15:36:20.372Z,39.23
2023-06-21T15:38:48.619Z,39.26
2023-06-21T15:41:17.109Z,39.71
2023-06-21T15:43:45.317Z,39.78
2023-06-21T15:46:16.873Z,39.82
2023-06-21T15:48:45.157Z,39.56
2023-06-21T15:51:13.307Z,39.85
2023-06-21T15:53:43.731Z,40.12
2023-06-21T15:56:11.929Z,39.80
2023-06-21T15:58:40.135Z,40.33
2023-06-21T16:01:10.014Z,40.25
2023-06-21T16:03:38.282Z,40.59
2023-06-21T16:06:06.544Z,40.46
2023-06-21T16:08:34.675Z,40.35
2023-06-21T16:11:04.170Z,40.07
2023-06-21T16:13:35.534Z,40.07
2023-06-21T16:16:08.679Z,40.27
2023-06-21T16:18:36.862Z,39.45
2023-06-21T16:21:05.172Z,38.70
2023-06-21T16:23:33.424Z,38.78
2023-06-21T16:26:01.909Z,38.59
2023-06-21T16:28:31.530Z,38.59
2023-06-21T16:30:59.738Z,38.70
2023-06-21T16:33:27.866Z,39.03
2023-06-21T16:35:55.936Z,39.21
2023-06-21T16:38:24.244Z,39.81
2023-06-21T16:40:52.400Z,39.67
2023-06-21T16:43:20.605Z,40.10
2023-06-21T16:45:50.345Z,40.33
2023-06-21T16:48:19.456Z,40.33
2023-06-21T16:50:47.931Z,40.38
2023-06-21T16:53:16.183Z,40.58
2023-06-21T16:55:44.267Z,40.30
2023-06-21T16:58:12.523Z,40.43
2023-06-21T17:00:40.868Z,40.18
2023-06-21T17:03:10.486Z,40.00
2023-06-21T17:05:40.194Z,39.81
2023-06-21T17:08:08.509Z,39.35
2023-06-21T17:10:36.591Z,39.08
2023-06-21T17:13:04.772Z,38.85
2023-06-21T17:15:32.833Z,38.36
2023-06-21T17:18:01.086Z,37.97
2023-06-21T17:20:30.850Z,37.73
2023-06-21T17:22:59.125Z,36.91
2023-06-21T17:25:27.825Z,36.33
2023-06-21T17:27:56.208Z,36.00
2023-06-21T17:30:24.415Z,36.05
2023-06-21T17:32:52.694Z,35.96
2023-06-21T17:35:21.191Z,35.88
2023-06-21T17:37:50.593Z,35.27
2023-06-21T17:40:18.778Z,35.30
2023-06-21T17:42:46.943Z,35.02
2023-06-21T17:45:17.444Z,34.88
2023-06-21T17:47:45.689Z,34.85
2023-06-21T17:50:14.013Z,34.60
2023-06-21T17:52:42.095Z,34.03
2023-06-21T17:55:13.662Z,34.16
2023-06-21T17:57:41.878Z,33.84
2023-06-21T18:00:10.761Z,33.67
2023-06-21T18:02:41.972Z,33.73
2023-06-21T18:05:13.507Z,33.48
2023-06-21T18:07:42.115Z,33.21
2023-06-21T18:10:12.122Z,33.12
2023-06-21T18:12:40.317Z,33.12
2023-06-21T18:15:09.426Z,32.94
2023-06-21T18:17:39.170Z,32.83
2023-06-21T18:20:08.885Z,32.62
2023-06-21T18:22:43.065Z,32.67
2023-06-21T18:25:13.764Z,32.55
2023-06-21T18:27:41.915Z,32.43
2023-06-21T18:30:10.979Z,32.27
2023-06-21T18:32:40.200Z,32.28
2023-06-21T18:35:10.896Z,32.21
2023-06-21T18:37:40.144Z,32.24
2023-06-21T18:40:09.798Z,31.97
2023-06-21T18:42:40.113Z,31.79
2023-06-21T18:45:09.339Z,31.92
2023-06-21T18:47:37.584Z,31.86
2023-06-21T18:50:06.622Z,31.70
2023-06-21T18:52:34.775Z,31.69
2023-06-21T18:55:02.932Z,31.64
2023-06-21T18:57:32.447Z,31.35
2023-06-21T19:00:01.938Z,31.21
2023-06-21T19:02:30.207Z,31.18
2023-06-21T19:04:58.654Z,31.21
2023-06-21T19:07:27.105Z,31.06
2023-06-21T19:09:55.553Z,30.99
2023-06-21T19:12:24.846Z,30.84
2023-06-21T19:14:53.834Z,30.94
2023-06-21T19:17:23.424Z,30.80
2023-06-21T19:19:51.624Z,30.76
2023-06-21T19:22:19.720Z,30.65
2023-06-21T19:24:47.847Z,30.57
2023-06-21T19:27:15.936Z,30.53
2023-06-21T19:29:43.996Z,30.41
2023-06-21T19:32:12.272Z,30.35
2023-06-21T19:34:41.769Z,30.25
2023-06-21T19:37:10.056Z,30.27
2023-06-21T19:39:38.366Z,30.30
2023-06-21T19:42:07.779Z,29.99
2023-06-21T19:44:35.913Z,29.83
2023-06-21T19:47:04.377Z,29.64
2023-06-21T19:49:32.462Z,29.66
2023-06-21T19:52:02.007Z,29.68
2023-06-21T19:54:30.200Z,29.58
2023-06-21T19:56:59.598Z,29.53
2023-06-21T19:59:27.853Z,29.38
2023-06-21T20:01:55.974Z,29.44
2023-06-21T20:04:24.095Z,29.40
2023-06-21T20:06:52.311Z,29.24
2023-06-21T20:09:21.788Z,29.14
2023-06-21T20:11:49.911Z,29.20
2023-06-21T20:14:18.535Z,28.87
2023-06-21T20:16:46.655Z,29.06
2023-06-21T20:19:16.864Z,29.05
2023-06-21T20:21:46.970Z,29.08
2023-06-21T20:24:15.373Z,28.85
2023-06-21T20:26:45.170Z,28.72
2023-06-21T20:29:13.364Z,27.82
2023-06-21T20:31:41.547Z,27.92
2023-06-21T20:34:09.718Z,28.39
2023-06-21T20:36:39.221Z,28.20
2023-06-21T20:39:08.989Z,28.10
2023-06-21T20:41:37.203Z,28.20
2023-06-21T20:44:06.862Z,28.40
2023-06-21T20:46:35.051Z,28.38
2023-06-21T20:49:04.566Z,27.70
2023-06-21T20:51:32.870Z,27.15
2023-06-21T20:54:01.040Z,25.68
2023-06-21T20:56:29.188Z,26.11
2023-06-21T20:58:58.459Z,25.75
2023-06-21T21:01:28.136Z,25.82
2023-06-21T21:03:56.736Z,25.38
2023-06-21T21:06:25.053Z,25.72
2023-06-21T21:08:53.318Z,25.52
2023-06-21T21:11:21.427Z,25.72
2023-06-21T21:13:49.524Z,26.37
2023-06-21T21:16:17.695Z,26.70
2023-06-21T21:18:47.249Z,26.30
2023-06-21T21:21:15.328Z,25.05
2023-06-21T21:23:43.765Z,24.24
2023-06-21T21:26:11.807Z,23.76
2023-06-21T21:28:40.086Z,24.29
2023-06-21T21:31:08.273Z,24.86
2023-06-21T21:33:36.507Z,24.59
2023-06-21T21:36:06.799Z,24.38
2023-06-21T21:38:35.156Z,24.37
2023-06-21T21:41:03.248Z,25.15
2023-06-21T21:43:31.376Z,25.43
2023-06-21T21:45:59.498Z,25.52
2023-06-21T21:48:27.640Z,25.71
2023-06-21T21:50:55.806Z,25.81
2023-06-21T21:53:25.371Z,25.51
2023-06-21T21:55:53.530Z,25.59
2023-06-21T21:58:21.747Z,25.88
2023-06-21T22:00:49.897Z,26.16
2023-06-21T22:03:18.212Z,25.84
2023-06-21T22:05:46.332Z,25.98
2023-06-21T22:08:14.461Z,25.13
2023-06-21T22:10:44.140Z,24.27
2023-06-21T22:13:12.379Z,24.39
2023-06-21T22:15:50.610Z,24.26
2023-06-21T22:18:24.956Z,23.55
2023-06-21T22:20:54.461Z,23.74
2023-06-21T22:23:22.574Z,23.58
2023-06-21T22:25:52.584Z,23.82
2023-06-21T22:28:20.795Z,23.77
2023-06-21T22:30:49.103Z,23.89
2023-06-21T22:33:17.387Z,23.64
2023-06-21T22:35:45.488Z,23.56
2023-06-21T22:38:13.642Z,23.73
2023-06-21T22:40:41.707Z,23.56
2023-06-21T22:43:11.286Z,24.00
2023-06-21T22:45:44.393Z,24.19
2023-06-21T22:48:14.656Z,24.27
2023-06-21T22:50:44.077Z,24.51
2023-06-21T22:53:12.293Z,25.36
2023-06-21T22:55:40.453Z,25.41
2023-06-21T22:58:08.659Z,24.77
2023-06-21T23:00:38.167Z,24.11
2023-06-21T23:03:06.566Z,24.79
2023-06-21T23:05:34.886Z,25.06
2023-06-21T23:08:03.245Z,25.11
2023-06-21T23:10:31.658Z,25.09
2023-06-21T23:13:06.597Z,25.37
2023-06-21T23:15:35.769Z,24.96
2023-06-21T23:18:05.424Z,24.51
2023-06-21T23:20:37.994Z,25.09
2023-06-21T23:23:16.212Z,24.47
2023-06-21T23:25:46.102Z,23.59
2023-06-21T23:28:14.271Z,23.93
2023-06-21T23:30:44.367Z,24.48
2023-06-21T23:33:14.081Z,24.06
2023-06-21T23:35:42.250Z,24.43
2023-06-21T23:38:10.455Z,24.46
2023-06-21T23:40:38.775Z,25.46
2023-06-21T23:43:09.234Z,25.75
2023-06-21T23:45:40.401Z,25.24
2023-06-21T23:48:09.226Z,24.98
2023-06-21T23:50:38.751Z,25.11
2023-06-21T23:53:08.108Z,25.49
2023-06-21T23:55:40.228Z,24.88
2023-06-21T23:58:08.632Z,24.81
